createdAt,value
2018-02-19T00:00:10.437Z,19.67
2018-02-19T00:02:36.595Z,19.60
2018-02-19T00:05:02.852Z,20.37
2018-02-19T00:07:29.050Z,17.97
2018-02-19T00:09:55.182Z,19.23
2018-02-19T00:12:21.385Z,23.27
2018-02-19T00:14:47.542Z,19.63
2018-02-19T00:17:13.764Z,20.27
2018-02-19T00:19:39.939Z,19.53
2018-02-19T00:22:06.136Z,18.87
2018-02-19T00:24:32.298Z,20.43
2018-02-19T00:26:58.532Z,19.57
2018-02-19T00:29:24.699Z,22.77
2018-02-19T00:31:50.858Z,20.93
2018-02-19T00:34:17.029Z,21.10
2018-02-19T00:36:43.208Z,20.40
2018-02-19T00:39:09.348Z,20.20
2018-02-19T00:41:35.543Z,19.20
2018-02-19T00:44:01.801Z,20.80
2018-02-19T00:46:27.999Z,20.60
2018-02-19T00:48:54.168Z,24.10
2018-02-19T00:51:20.392Z,19.10
2018-02-19T00:53:46.548Z,19.70
2018-02-19T00:56:12.756Z,20.33
2018-02-19T00:58:38.973Z,21.60
2018-02-19T01:01:05.309Z,19.57
2018-02-19T01:03:31.376Z,20.33
2018-02-19T01:05:57.600Z,21.60
2018-02-19T01:08:23.850Z,20.57
2018-02-19T01:10:50.092Z,21.73
2018-02-19T01:13:16.281Z,22.50
2018-02-19T01:15:42.455Z,21.23
2018-02-19T01:18:08.680Z,20.70
2018-02-19T01:20:34.861Z,21.90
2018-02-19T01:23:01.079Z,20.17
2018-02-19T01:25:27.269Z,24.10
2018-02-19T01:27:53.465Z,20.00
2018-02-19T01:30:19.630Z,20.30
2018-02-19T01:32:45.835Z,21.47
2018-02-19T01:35:12.091Z,21.30
2018-02-19T01:37:38.358Z,21.40
2018-02-19T01:40:04.508Z,20.47
2018-02-19T01:42:30.745Z,21.07
2018-02-19T01:44:56.915Z,19.93
2018-02-19T01:47:23.183Z,19.87
2018-02-19T01:50:01.481Z,20.80
2018-02-19T01:52:27.687Z,21.07
2018-02-19T01:54:53.838Z,22.47
2018-02-19T01:57:20.047Z,22.13
2018-02-19T01:59:46.252Z,21.00
2018-02-19T02:02:12.449Z,19.10
2018-02-19T02:04:38.710Z,21.37
2018-02-19T02:07:04.896Z,25.40
2018-02-19T02:09:31.112Z,23.10
2018-02-19T02:11:57.335Z,23.20
2018-02-19T02:14:23.469Z,22.43
2018-02-19T02:16:49.692Z,19.83
2018-02-19T02:19:15.922Z,18.80
2018-02-19T02:21:42.104Z,20.80
2018-02-19T02:24:08.303Z,22.93
2018-02-19T02:26:34.513Z,21.17
2018-02-19T02:29:00.682Z,20.27
2018-02-19T02:31:26.918Z,21.33
2018-02-19T02:33:53.102Z,20.23
2018-02-19T02:36:19.278Z,21.00
2018-02-19T02:38:45.460Z,21.13
2018-02-19T02:41:11.670Z,20.77
2018-02-19T02:43:37.852Z,24.53
2018-02-19T02:46:04.036Z,20.87
2018-02-19T02:48:37.160Z,21.87
2018-02-19T02:51:03.378Z,21.97
2018-02-19T02:53:29.510Z,21.77
2018-02-19T02:55:55.656Z,21.63
2018-02-19T02:58:21.843Z,22.67
2018-02-19T03:00:48.039Z,20.53
2018-02-19T03:03:14.213Z,22.00
2018-02-19T03:05:40.470Z,21.37
2018-02-19T03:08:06.641Z,21.77
2018-02-19T03:10:32.928Z,21.27
2018-02-19T03:12:59.093Z,21.53
2018-02-19T03:15:25.240Z,22.30
2018-02-19T03:17:51.480Z,21.40
2018-02-19T03:20:17.699Z,27.10
2018-02-19T03:22:43.870Z,21.20
2018-02-19T03:25:10.049Z,22.63
2018-02-19T03:27:36.201Z,22.23
2018-02-19T03:30:02.526Z,22.83
2018-02-19T03:32:28.691Z,21.93
2018-02-19T03:34:54.923Z,22.27
2018-02-19T03:37:21.088Z,21.20
2018-02-19T03:39:47.301Z,22.30
2018-02-19T03:42:13.479Z,22.73
2018-02-19T03:44:39.637Z,21.63
2018-02-19T03:47:05.826Z,24.40
2018-02-19T03:49:32.044Z,22.83
2018-02-19T03:51:58.282Z,24.87
2018-02-19T03:54:24.509Z,23.10
2018-02-19T03:56:50.724Z,24.73
2018-02-19T03:59:16.888Z,23.30
2018-02-19T04:01:43.132Z,22.80
2018-02-19T04:04:09.276Z,22.73
2018-02-19T04:06:35.547Z,22.27
2018-02-19T04:09:01.759Z,22.33
2018-02-19T04:11:27.983Z,20.83
2018-02-19T04:13:54.233Z,22.87
2018-02-19T04:16:20.386Z,21.53
2018-02-19T04:18:46.565Z,23.33
2018-02-19T04:21:12.796Z,24.30
2018-02-19T04:23:38.953Z,23.40
2018-02-19T04:26:05.120Z,22.80
2018-02-19T04:28:31.338Z,22.17
2018-02-19T04:30:57.590Z,20.90
2018-02-19T04:33:23.761Z,26.67
2018-02-19T04:35:49.968Z,23.80
2018-02-19T04:38:16.620Z,25.70
2018-02-19T04:40:42.852Z,23.07
2018-02-19T04:43:09.883Z,22.17
2018-02-19T04:45:46.801Z,24.57
2018-02-19T04:48:12.919Z,23.70
2018-02-19T04:50:39.139Z,25.33
2018-02-19T04:53:05.347Z,22.37
2018-02-19T04:55:31.487Z,21.83
2018-02-19T04:57:57.674Z,22.53
2018-02-19T05:00:23.904Z,23.60
2018-02-19T05:02:50.044Z,23.27
2018-02-19T05:05:16.272Z,22.93
2018-02-19T05:07:42.798Z,22.47
2018-02-19T05:10:08.984Z,25.73
2018-02-19T05:12:35.127Z,23.40
2018-02-19T05:15:01.303Z,25.30
2018-02-19T05:17:27.459Z,23.10
2018-02-19T05:19:53.674Z,22.90
2018-02-19T05:22:19.880Z,23.00
2018-02-19T05:24:46.065Z,22.10
2018-02-19T05:27:12.216Z,24.10
2018-02-19T05:29:38.414Z,22.20
2018-02-19T05:32:04.635Z,23.27
2018-02-19T05:34:30.764Z,22.83
2018-02-19T05:36:56.934Z,22.53
2018-02-19T05:39:23.194Z,23.83
2018-02-19T05:41:49.392Z,23.07
2018-02-19T05:44:15.576Z,21.93
2018-02-19T05:46:41.724Z,26.93
2018-02-19T05:49:07.954Z,23.07
2018-02-19T05:51:34.193Z,23.23
2018-02-19T05:54:00.331Z,24.73
2018-02-19T05:56:26.501Z,21.07
2018-02-19T05:58:52.721Z,25.53
2018-02-19T06:01:18.965Z,23.90
2018-02-19T06:03:45.159Z,23.43
2018-02-19T06:06:11.341Z,23.17
2018-02-19T06:08:37.574Z,21.90
2018-02-19T06:11:03.824Z,22.93
2018-02-19T06:13:29.982Z,23.63
2018-02-19T06:15:56.154Z,24.73
2018-02-19T06:18:22.398Z,23.30
2018-02-19T06:20:48.713Z,24.00
2018-02-19T06:23:15.962Z,27.80
2018-02-19T06:25:42.149Z,24.43
2018-02-19T06:28:08.346Z,24.43
2018-02-19T06:30:34.609Z,21.27
2018-02-19T06:33:00.769Z,22.73
2018-02-19T06:35:27.036Z,23.23
2018-02-19T06:37:53.227Z,21.63
2018-02-19T06:40:19.457Z,22.07
2018-02-19T06:42:46.017Z,21.50
2018-02-19T06:45:12.229Z,23.00
2018-02-19T06:47:38.473Z,22.70
2018-02-19T06:50:04.731Z,23.50
2018-02-19T06:52:30.984Z,21.77
2018-02-19T06:54:57.142Z,23.10
2018-02-19T06:57:23.398Z,20.33
2018-02-19T06:59:49.553Z,23.77
2018-02-19T07:02:15.806Z,21.60
2018-02-19T07:04:41.984Z,22.60
2018-02-19T07:07:08.141Z,21.80
2018-02-19T07:09:34.355Z,20.70
2018-02-19T07:12:00.627Z,20.80
2018-02-19T07:14:26.778Z,21.67
2018-02-19T07:16:52.997Z,21.53
2018-02-19T07:19:19.213Z,22.40
2018-02-19T07:21:45.466Z,22.47
2018-02-19T07:24:11.648Z,20.80
2018-02-19T07:26:37.797Z,21.67
2018-02-19T07:29:04.059Z,22.53
2018-02-19T07:31:30.378Z,21.03
2018-02-19T07:33:56.569Z,19.57
2018-02-19T07:36:22.761Z,23.67
2018-02-19T07:38:49.002Z,20.90
2018-02-19T07:41:15.211Z,22.93
2018-02-19T07:43:41.382Z,21.20
2018-02-19T07:46:07.619Z,21.60
2018-02-19T07:48:33.759Z,20.43
2018-02-19T07:50:59.988Z,22.30
2018-02-19T07:53:26.149Z,22.07
2018-02-19T07:55:52.284Z,22.10
2018-02-19T07:58:18.475Z,24.30
2018-02-19T08:00:44.705Z,20.70
2018-02-19T08:03:10.870Z,21.97
2018-02-19T08:05:37.084Z,21.03
2018-02-19T08:08:03.332Z,25.60
2018-02-19T08:10:29.547Z,23.67
2018-02-19T08:12:55.745Z,21.37
2018-02-19T08:15:21.897Z,21.60
2018-02-19T08:17:48.149Z,22.40
2018-02-19T08:20:14.361Z,22.13
2018-02-19T08:22:40.662Z,22.80
2018-02-19T08:25:06.869Z,22.63
2018-02-19T08:27:33.033Z,22.43
2018-02-19T08:29:59.302Z,21.03
2018-02-19T08:32:25.568Z,21.83
2018-02-19T08:34:51.725Z,22.17
2018-02-19T08:37:17.965Z,22.70
2018-02-19T08:39:44.224Z,22.70
2018-02-19T08:42:10.415Z,24.03
2018-02-19T08:44:36.579Z,25.23
2018-02-19T08:47:02.790Z,23.00
2018-02-19T08:49:28.979Z,22.30
2018-02-19T08:51:55.219Z,22.83
2018-02-19T08:54:21.424Z,23.50
2018-02-19T08:56:47.647Z,20.77
2018-02-19T08:59:13.824Z,22.63
2018-02-19T09:01:40.041Z,22.60
2018-02-19T09:04:06.255Z,24.10
2018-02-19T09:06:32.404Z,24.30
2018-02-19T09:08:58.592Z,25.63
2018-02-19T09:11:24.781Z,23.57
2018-02-19T09:13:50.894Z,22.77
2018-02-19T09:16:17.070Z,24.20
2018-02-19T09:18:43.192Z,25.50
2018-02-19T09:21:09.308Z,26.03
2018-02-19T09:23:35.444Z,23.10
2018-02-19T09:26:01.623Z,23.57
2018-02-19T09:28:27.780Z,22.43
2018-02-19T09:30:53.910Z,22.60
2018-02-19T09:33:20.039Z,23.67
2018-02-19T09:35:46.220Z,23.70
2018-02-19T09:38:12.379Z,24.97
2018-02-19T09:40:38.515Z,23.17
2018-02-19T09:43:04.675Z,27.10
2018-02-19T09:45:30.873Z,24.77
2018-02-19T09:47:57.001Z,24.47
2018-02-19T09:50:23.192Z,25.47
2018-02-19T09:52:49.326Z,25.53
2018-02-19T09:55:15.500Z,22.47
2018-02-19T09:57:41.668Z,25.80
2018-02-19T10:00:07.817Z,25.73
2018-02-19T10:02:33.940Z,26.53
2018-02-19T10:05:00.088Z,23.40
2018-02-19T10:07:26.243Z,24.93
2018-02-19T10:09:52.375Z,25.40
2018-02-19T10:12:18.500Z,25.53
2018-02-19T10:14:44.757Z,24.67
2018-02-19T10:17:10.927Z,23.43
2018-02-19T10:19:37.028Z,23.73
2018-02-19T10:22:03.130Z,23.17
2018-02-19T10:24:29.281Z,24.87
2018-02-19T10:26:55.464Z,23.23
2018-02-19T10:29:21.594Z,23.57
2018-02-19T10:31:47.728Z,25.40
2018-02-19T10:34:13.838Z,26.07
2018-02-19T10:36:39.994Z,24.10
2018-02-19T10:39:06.179Z,23.83
2018-02-19T10:41:32.302Z,24.87
2018-02-19T10:43:58.430Z,25.30
2018-02-19T10:46:24.656Z,23.03
2018-02-19T10:48:50.759Z,27.33
2018-02-19T10:51:16.903Z,26.90
2018-02-19T10:53:43.053Z,26.83
2018-02-19T10:56:09.231Z,24.17
2018-02-19T10:58:35.389Z,25.10
2018-02-19T11:01:01.542Z,25.87
2018-02-19T11:03:27.676Z,22.87
2018-02-19T11:05:53.838Z,26.37
2018-02-19T11:08:20.021Z,25.33
2018-02-19T11:10:46.108Z,27.03
2018-02-19T11:13:12.228Z,24.97
2018-02-19T11:15:38.398Z,25.33
2018-02-19T11:18:04.513Z,25.47
2018-02-19T11:20:30.723Z,22.50
2018-02-19T11:22:56.890Z,23.23
2018-02-19T11:25:23.141Z,22.40
2018-02-19T11:27:49.380Z,24.87
2018-02-19T11:30:15.535Z,23.33
2018-02-19T11:32:41.714Z,22.43
2018-02-19T11:35:07.953Z,23.77
2018-02-19T11:37:34.211Z,25.37
2018-02-19T11:40:00.446Z,23.60
2018-02-19T11:42:26.616Z,24.27
2018-02-19T11:44:52.784Z,24.33
2018-02-19T11:47:19.009Z,27.13
2018-02-19T11:49:45.171Z,25.03
2018-02-19T11:52:11.384Z,24.33
2018-02-19T11:54:37.630Z,25.03
2018-02-19T11:57:03.959Z,25.57
2018-02-19T11:59:30.147Z,24.00
2018-02-19T12:01:56.315Z,23.60
2018-02-19T12:04:22.514Z,23.63
2018-02-19T12:06:48.728Z,24.17
2018-02-19T12:09:14.998Z,24.10
2018-02-19T12:11:41.164Z,23.63
2018-02-19T12:14:07.330Z,24.93
2018-02-19T12:16:33.601Z,24.07
2018-02-19T12:18:59.798Z,24.47
2018-02-19T12:21:26.008Z,25.27
2018-02-19T12:23:52.270Z,26.70
2018-02-19T12:26:18.499Z,25.10
2018-02-19T12:28:44.640Z,24.63
2018-02-19T12:31:10.791Z,24.20
2018-02-19T12:33:36.981Z,25.50
2018-02-19T12:36:03.203Z,24.23
2018-02-19T12:38:29.424Z,24.90
2018-02-19T12:40:55.651Z,25.40
2018-02-19T12:43:28.685Z,25.10
2018-02-19T12:45:54.820Z,23.87
2018-02-19T12:48:21.039Z,23.60
2018-02-19T12:50:47.272Z,24.97
2018-02-19T12:53:13.430Z,25.10
2018-02-19T12:55:39.581Z,24.57
2018-02-19T12:58:05.750Z,25.87
2018-02-19T13:00:31.938Z,27.20
2018-02-19T13:02:58.083Z,25.87
2018-02-19T13:05:24.299Z,26.97
2018-02-19T13:07:50.499Z,25.53
2018-02-19T13:10:16.685Z,25.67
2018-02-19T13:12:42.827Z,25.50
2018-02-19T13:15:08.991Z,24.90
2018-02-19T13:17:35.133Z,25.10
2018-02-19T13:20:01.334Z,26.03
2018-02-19T13:22:27.477Z,25.07
2018-02-19T13:24:53.594Z,26.13
2018-02-19T13:27:19.785Z,25.20
2018-02-19T13:29:45.988Z,24.10
2018-02-19T13:32:12.120Z,25.07
2018-02-19T13:34:38.285Z,23.83
2018-02-19T13:37:04.416Z,26.47
2018-02-19T13:39:30.621Z,26.90
2018-02-19T13:41:56.838Z,25.40
2018-02-19T13:44:23.017Z,24.57
2018-02-19T13:46:49.162Z,24.37
2018-02-19T13:49:15.357Z,23.67
2018-02-19T13:51:41.561Z,22.93
2018-02-19T13:54:07.788Z,24.90
2018-02-19T13:56:33.972Z,25.80
2018-02-19T13:59:00.154Z,25.70
2018-02-19T14:01:26.403Z,24.50
2018-02-19T14:03:52.548Z,24.93
2018-02-19T14:06:18.682Z,22.80
2018-02-19T14:08:44.954Z,25.00
2018-02-19T14:11:11.228Z,25.33
2018-02-19T14:13:37.422Z,27.90
2018-02-19T14:16:03.594Z,24.63
2018-02-19T14:18:29.777Z,25.87
2018-02-19T14:20:56.011Z,24.70
2018-02-19T14:23:22.196Z,22.93
2018-02-19T14:25:48.376Z,25.57
2018-02-19T14:28:14.583Z,23.93
2018-02-19T14:30:40.805Z,25.43
2018-02-19T14:33:06.945Z,24.87
2018-02-19T14:35:33.104Z,24.60
2018-02-19T14:37:59.316Z,25.50
2018-02-19T14:40:25.493Z,24.17
2018-02-19T14:42:51.634Z,25.83
2018-02-19T14:45:17.823Z,25.07
2018-02-19T14:47:43.977Z,25.13
2018-02-19T14:50:10.177Z,28.70
2018-02-19T14:52:36.471Z,25.30
2018-02-19T14:55:02.688Z,26.17
2018-02-19T14:57:28.816Z,26.47
2018-02-19T14:59:54.987Z,26.90
2018-02-19T15:02:21.156Z,28.77
2018-02-19T15:04:47.289Z,26.37
2018-02-19T15:07:13.602Z,24.50
2018-02-19T15:09:39.889Z,24.97
2018-02-19T15:12:06.089Z,26.90
2018-02-19T15:14:32.254Z,26.13
2018-02-19T15:16:58.435Z,24.93
2018-02-19T15:19:24.588Z,25.10
2018-02-19T15:21:50.803Z,25.77
2018-02-19T15:24:16.928Z,26.00
2018-02-19T15:26:43.064Z,27.80
2018-02-19T15:29:09.251Z,24.33
2018-02-19T15:31:35.441Z,25.20
2018-02-19T15:34:01.632Z,24.77
2018-02-19T15:36:27.765Z,25.63
2018-02-19T15:38:53.967Z,27.17
2018-02-19T15:41:20.155Z,28.90
2018-02-19T15:43:46.383Z,26.63
2018-02-19T15:46:12.498Z,28.00
2018-02-19T15:48:38.700Z,26.27
2018-02-19T15:51:04.881Z,25.23
2018-02-19T15:53:31.026Z,26.80
2018-02-19T15:55:57.182Z,26.47
2018-02-19T15:58:23.315Z,27.23
2018-02-19T16:00:49.513Z,27.33
2018-02-19T16:03:15.701Z,28.37
2018-02-19T16:05:41.852Z,26.77
2018-02-19T16:08:08.106Z,29.23
2018-02-19T16:10:34.265Z,26.13
2018-02-19T16:13:00.405Z,27.63
2018-02-19T16:15:26.596Z,24.00
2018-02-19T16:17:52.718Z,24.87
2018-02-19T16:20:18.864Z,25.10
2018-02-19T16:22:45.889Z,24.63
2018-02-19T16:25:12.027Z,25.13
2018-02-19T16:27:38.174Z,24.10
2018-02-19T16:30:04.373Z,25.03
2018-02-19T16:32:30.615Z,24.03
2018-02-19T16:34:56.866Z,23.83
2018-02-19T16:37:23.061Z,24.57
2018-02-19T16:39:49.292Z,26.93
2018-02-19T16:42:15.452Z,27.50
2018-02-19T16:44:41.601Z,26.70
2018-02-19T16:47:07.797Z,34.10
2018-02-19T16:49:33.925Z,29.50
2018-02-19T16:52:00.156Z,35.17
2018-02-19T16:54:26.312Z,29.97
2018-02-19T16:56:52.454Z,26.50
2018-02-19T16:59:18.616Z,27.20
2018-02-19T17:01:44.840Z,26.43
2018-02-19T17:04:11.006Z,27.67
2018-02-19T17:06:37.151Z,28.17
2018-02-19T17:09:03.403Z,25.70
2018-02-19T17:11:29.598Z,25.10
2018-02-19T17:13:55.745Z,26.20
2018-02-19T17:16:21.926Z,29.93
2018-02-19T17:18:48.081Z,28.03
2018-02-19T17:21:17.204Z,26.67
2018-02-19T17:23:43.412Z,28.63
2018-02-19T17:26:09.559Z,26.97
2018-02-19T17:28:35.708Z,24.63
2018-02-19T17:31:01.960Z,25.63
2018-02-19T17:33:28.178Z,25.77
2018-02-19T17:35:54.387Z,29.50
2018-02-19T17:38:20.637Z,27.90
2018-02-19T17:40:46.821Z,23.20
2018-02-19T17:43:13.005Z,30.87
2018-02-19T17:45:39.152Z,28.73
2018-02-19T17:48:05.385Z,27.93
2018-02-19T17:50:31.589Z,27.93
2018-02-19T17:52:57.817Z,29.27
2018-02-19T17:55:23.974Z,27.57
2018-02-19T17:57:50.132Z,31.10
2018-02-19T18:00:16.345Z,27.63
2018-02-19T18:02:42.546Z,27.40
2018-02-19T18:05:08.717Z,27.63
2018-02-19T18:07:34.886Z,27.23
2018-02-19T18:10:01.119Z,28.33
2018-02-19T18:12:27.321Z,28.37
2018-02-19T18:14:53.517Z,26.17
2018-02-19T18:17:19.681Z,27.97
2018-02-19T18:19:45.862Z,29.87
2018-02-19T18:22:12.088Z,26.83
2018-02-19T18:24:38.250Z,28.93
2018-02-19T18:27:04.453Z,29.07
2018-02-19T18:29:30.651Z,33.00
2018-02-19T18:31:56.889Z,27.03
2018-02-19T18:34:23.093Z,28.60
2018-02-19T18:36:49.250Z,30.50
2018-02-19T18:39:15.508Z,28.87
2018-02-19T18:41:41.728Z,29.40
2018-02-19T18:44:08.005Z,31.60
2018-02-19T18:46:34.205Z,29.23
2018-02-19T18:49:00.359Z,42.20
2018-02-19T18:51:26.580Z,28.87
2018-02-19T18:53:52.795Z,42.37
2018-02-19T18:56:18.966Z,39.60
2018-02-19T18:58:45.191Z,41.67
2018-02-19T19:01:11.398Z,32.33
2018-02-19T19:03:37.614Z,29.87
2018-02-19T19:06:03.869Z,36.10
2018-02-19T19:08:42.256Z,31.93
2018-02-19T19:11:08.427Z,31.33
2018-02-19T19:13:34.646Z,29.97
2018-02-19T19:16:01.081Z,28.17
2018-02-19T19:18:27.268Z,29.70
2018-02-19T19:20:53.436Z,29.97
2018-02-19T19:23:19.958Z,27.87
2018-02-19T19:25:46.157Z,27.37
2018-02-19T19:28:12.332Z,29.50
2018-02-19T19:30:38.557Z,28.33
2018-02-19T19:33:04.810Z,30.60
2018-02-19T19:35:41.487Z,30.90
2018-02-19T19:38:15.942Z,33.60
2018-02-19T19:40:42.304Z,30.73
2018-02-19T19:43:08.558Z,33.13
2018-02-19T19:45:42.491Z,31.53
2018-02-19T19:48:08.661Z,34.30
2018-02-19T19:50:34.922Z,32.67
2018-02-19T19:53:01.537Z,30.57
2018-02-19T19:55:27.675Z,28.87
2018-02-19T19:57:53.892Z,29.20
2018-02-19T20:00:20.129Z,29.27
2018-02-19T20:03:10.051Z,34.40
2018-02-19T20:08:29.287Z,31.43
2018-02-19T20:13:57.844Z,33.13
2018-02-19T20:16:24.874Z,36.80
2018-02-19T20:19:04.040Z,34.17
2018-02-19T20:21:30.209Z,33.00
2018-02-19T20:26:54.932Z,30.17
2018-02-19T20:32:23.790Z,33.50
2018-02-19T20:34:50.043Z,31.23
2018-02-19T20:40:18.625Z,32.27
2018-02-19T20:45:37.780Z,32.20
2018-02-19T20:48:03.953Z,28.10
2018-02-19T20:50:30.164Z,31.53
2018-02-19T20:52:56.438Z,35.33
2018-02-19T20:55:22.647Z,31.73
2018-02-19T21:00:51.079Z,32.17
2018-02-19T21:03:17.293Z,33.00
2018-02-19T21:05:43.521Z,35.17
2018-02-19T21:08:09.763Z,32.80
2018-02-19T21:10:36.004Z,30.50
2018-02-19T21:13:02.185Z,29.07
2018-02-19T21:18:31.410Z,31.90
2018-02-19T21:20:57.616Z,28.27
2018-02-19T21:23:23.826Z,30.47
2018-02-19T21:28:52.963Z,30.83
2018-02-19T21:31:19.141Z,33.40
2018-02-19T21:40:00.541Z,33.20
2018-02-19T21:42:26.832Z,32.30
2018-02-19T21:44:53.029Z,30.83
2018-02-19T21:47:19.191Z,28.10
2018-02-19T21:49:45.372Z,30.63
2018-02-19T21:52:11.552Z,31.67
2018-02-19T21:57:40.287Z,30.73
2018-02-19T22:03:21.947Z,36.20
2018-02-19T22:05:48.165Z,32.90
2018-02-19T22:08:14.344Z,32.03
2018-02-19T22:10:48.524Z,34.83
2018-02-19T22:13:14.763Z,34.10
2018-02-19T22:15:47.327Z,35.67
2018-02-19T22:21:27.096Z,30.37
2018-02-19T22:26:56.170Z,31.37
2018-02-19T22:35:28.100Z,31.17
2018-02-19T22:40:57.013Z,32.57
2018-02-19T22:43:23.179Z,36.43
2018-02-19T22:51:55.194Z,33.37
2018-02-19T22:54:22.208Z,35.67
2018-02-19T22:56:48.391Z,34.27
2018-02-19T22:59:36.980Z,32.23
2018-02-19T23:02:11.040Z,35.07
2018-02-19T23:04:43.778Z,33.43
2018-02-19T23:10:13.386Z,33.83
2018-02-19T23:12:39.553Z,33.93
2018-02-19T23:21:11.101Z,33.53
2018-02-19T23:23:37.366Z,32.30
2018-02-19T23:26:03.829Z,32.10
2018-02-19T23:28:29.956Z,31.67
2018-02-19T23:30:56.128Z,33.03
2018-02-19T23:33:22.304Z,34.20
2018-02-19T23:35:48.850Z,34.07
2018-02-19T23:38:15.103Z,31.40
2018-02-19T23:40:41.233Z,31.23
2018-02-19T23:43:07.362Z,31.93
